Alegria, Brazil
Current Conditions -  °F | °C
As of 3:00 PM on Friday 28 Nov 2014 (Local Time) from SBDN Reporting Station
Broken Clouds Broken Clouds  
Wind Chill: 86°   Ceiling: 3300
Heat Index: 89°   Visibility: 6mi
Dew Point: 68°   Wind: 5mph
Humidity: 55%   Direction: 60°ENE
Pressure: 29.94"   Gusts: NA
Location:  22.52°S, 50.92°W
Report Text: SBDN 281700Z 06004KT 9999 BKN033 30/20 Q1014
Loading
Personal Weather Stations






























Interactive Weather Map New forecast layout! Learn more

10-Day Weather Forecast

Advertisements
Track Severe Weather on mobile